Time;durP1;ratioP1;P1;durP2;ratioP2;P2;SDS_P1;SDS_P2;PMS_P1;PMS_P2;Temp;Humidity;BMP_temperature;BMP_pressure;BME280_temperature;BME280_humidity;BME280_pressure;Samples;Min_cycle;Max_cycle;Signal;HPM_P1;HPM_P2
2021/01/08 00:00:41;;;;;;;28.65;18.70;;;;;;;2.33;65.82;94883.09;5008557;28;20119;-62
2021/01/08 00:03:06;;;;;;;29.30;18.73;;;;;;;2.41;66.23;94885.25;5010433;28;20026;-62
2021/01/08 00:05:32;;;;;;;31.48;19.83;;;;;;;2.49;65.45;94895.22;5009212;28;20046;-62
2021/01/08 00:07:57;;;;;;;31.33;19.20;;;;;;;2.54;65.45;94902.31;5008761;28;20129;-62
2021/01/08 00:10:22;;;;;;;27.30;18.75;;;;;;;2.71;65.66;94921.25;5008306;28;20046;-62
2021/01/08 00:12:48;;;;;;;28.65;18.95;;;;;;;2.72;65.63;94917.63;5008394;28;20037;-62
2021/01/08 00:15:13;;;;;;;31.10;20.20;;;;;;;2.80;65.12;94926.81;5008679;28;20113;-63
2021/01/08 00:17:38;;;;;;;25.20;17.17;;;;;;;2.72;65.25;94916.81;5010627;28;20026;-61
2021/01/08 00:20:05;;;;;;;29.63;19.73;;;;;;;2.54;65.36;94874.22;5008340;28;20042;-62
2021/01/08 00:22:30;;;;;;;25.90;17.98;;;;;;;2.75;65.06;94903.16;5008201;28;20038;-62
2021/01/08 00:24:56;;;;;;;29.95;19.80;;;;;;;2.62;65.39;94885.28;5011227;28;20451;-61
2021/01/08 00:27:22;;;;;;;31.38;19.55;;;;;;;2.87;65.58;94924.75;4994817;28;20444;-62
2021/01/08 00:29:48;;;;;;;28.13;18.42;;;;;;;2.88;65.22;94926.31;5014102;28;20010;-62
2021/01/08 00:32:13;;;;;;;27.23;18.77;;;;;;;2.46;64.87;94866.88;5012123;28;20030;-60
2021/01/08 00:34:39;;;;;;;29.65;19.63;;;;;;;2.84;64.84;94917.38;5012252;28;20030;-63
2021/01/08 00:37:05;;;;;;;30.73;19.85;;;;;;;2.71;65.06;94913.38;5012257;28;20125;-61
2021/01/08 00:39:30;;;;;;;30.17;18.98;;;;;;;2.81;65.11;94920.50;5011992;28;20063;-61
2021/01/08 00:41:56;;;;;;;29.70;19.80;;;;;;;2.41;65.04;94858.22;5014040;28;20033;-61
2021/01/08 00:44:21;;;;;;;31.10;19.98;;;;;;;2.79;65.40;94919.97;5012121;28;20049;-62
2021/01/08 00:46:48;;;;;;;31.40;20.02;;;;;;;2.78;64.99;94919.19;5012055;28;20038;-63
2021/01/08 00:49:14;;;;;;;33.30;21.02;;;;;;;2.72;65.17;94907.09;5011772;28;20187;-63
2021/01/08 00:51:40;;;;;;;28.05;19.00;;;;;;;2.41;65.01;94866.88;5011705;28;20045;-62
2021/01/08 00:54:06;;;;;;;27.15;18.48;;;;;;;2.66;65.41;94904.72;4996313;28;20022;-61
2021/01/08 00:56:31;;;;;;;28.38;19.17;;;;;;;2.75;64.84;94913.66;5012050;28;20100;-62
2021/01/08 00:58:57;;;;;;;29.45;19.17;;;;;;;2.70;65.19;94913.66;5011377;28;20042;-62
2021/01/08 01:01:23;;;;;;;28.10;19.00;;;;;;;2.75;65.35;94914.44;5011680;28;20093;-63
2021/01/08 01:03:49;;;;;;;26.52;18.10;;;;;;;2.52;64.76;94884.22;4994053;28;20130;-61
2021/01/08 01:06:25;;;;;;;25.23;18.15;;;;;;;2.75;65.24;94914.44;5012018;28;20498;-62
2021/01/08 01:08:51;;;;;;;26.23;17.60;;;;;;;2.75;65.10;94924.94;5013497;28;20033;-62
2021/01/08 01:11:18;;;;;;;26.27;18.20;;;;;;;2.57;65.05;94894.72;5011354;28;20046;-62
2021/01/08 01:13:45;;;;;;;26.17;17.85;;;;;;;2.74;64.96;94927.84;5011561;28;20495;-62
2021/01/08 01:16:15;;;;;;;26.98;17.95;;;;;;;2.73;65.08;94926.28;5011690;28;20068;-62
2021/01/08 01:18:43;;;;;;;26.55;18.45;;;;;;;2.71;64.87;94934.41;5011498;28;20088;-61
2021/01/08 01:21:08;;;;;;;27.05;18.25;;;;;;;2.59;64.97;94908.38;5013374;28;20492;-61
2021/01/08 01:23:34;;;;;;;29.65;19.80;;;;;;;2.44;65.02;94897.03;5011546;28;20133;-61
2021/01/08 01:25:59;;;;;;;27.02;18.95;;;;;;;2.66;65.36;94936.22;5011711;28;20049;-62
2021/01/08 01:28:24;;;;;;;28.15;18.60;;;;;;;2.49;65.07;94910.19;5011123;28;20053;-61
2021/01/08 01:30:50;;;;;;;30.75;19.05;;;;;;;2.55;65.04;94912.56;4993857;28;20037;-62
2021/01/08 01:33:15;;;;;;;28.52;17.58;;;;;;;2.56;64.92;94923.88;5011100;28;20116;-63
2021/01/08 01:35:40;;;;;;;27.13;18.42;;;;;;;2.62;64.97;94937.81;5013277;28;20026;-62
2021/01/08 01:38:06;;;;;;;24.60;18.23;;;;;;;2.46;65.12;94905.47;4993801;28;20450;-62
2021/01/08 01:40:31;;;;;;;26.30;18.27;;;;;;;2.55;65.06;94927.53;5011055;28;20038;-62
2021/01/08 01:42:56;;;;;;;24.50;18.08;;;;;;;2.53;65.47;94932.25;5011164;28;20045;-62
2021/01/08 01:45:22;;;;;;;28.58;19.67;;;;;;;2.42;64.71;94913.06;5011146;28;20038;-62
2021/01/08 01:47:47;;;;;;;30.38;19.27;;;;;;;2.37;64.86;94905.19;5013083;28;20033;-62
2021/01/08 01:50:13;;;;;;;28.95;19.95;;;;;;;2.42;65.45;94920.94;5010905;28;20500;-62
2021/01/08 01:52:39;;;;;;;29.77;19.42;;;;;;;2.30;64.89;94905.41;5010777;28;20507;-62
2021/01/08 01:55:06;;;;;;;27.30;19.20;;;;;;;2.37;65.55;94926.16;5011149;28;20050;-62
2021/01/08 01:57:32;;;;;;;26.33;17.85;;;;;;;2.28;65.34;94904.09;5010838;28;20056;-62
2021/01/08 01:59:58;;;;;;;27.88;18.00;;;;;;;2.48;65.24;94940.13;5012440;28;20033;-62
2021/01/08 02:02:28;;;;;;;29.27;18.65;;;;;;;2.46;65.62;94939.59;5010534;28;20038;-62
2021/01/08 02:04:55;;;;;;;30.17;18.48;;;;;;;2.24;65.17;94911.69;5010905;28;20042;-62
2021/01/08 02:07:22;;;;;;;28.25;18.17;;;;;;;2.54;65.73;94947.75;5010537;28;20117;-62
2021/01/08 02:09:49;;;;;;;27.23;18.13;;;;;;;2.35;65.51;94923.00;5010378;28;20088;-61
2021/01/08 02:12:15;;;;;;;25.42;18.38;;;;;;;2.36;65.08;94927.22;4992805;28;20030;-61
2021/01/08 02:14:44;;;;;;;30.17;19.02;;;;;;;2.55;65.26;94954.56;4994907;28;20030;-61
2021/01/08 02:17:12;;;;;;;26.15;17.63;;;;;;;2.56;64.99;94956.16;5010564;28;20046;-62
2021/01/08 02:19:45;;;;;;;25.63;17.75;;;;;;;2.46;65.58;94937.75;5010241;28;20412;-61
2021/01/08 02:22:21;;;;;;;26.02;16.95;;;;;;;1.66;65.20;94816.50;5010240;28;20039;-62
2021/01/08 02:25:05;;;;;;;23.83;17.90;;;;;;;2.55;65.45;94953.78;5010486;28;20063;-62
2021/01/08 02:27:32;;;;;;;26.83;18.40;;;;;;;2.06;64.95;94876.19;5010202;28;20030;-62
2021/01/08 02:29:58;;;;;;;27.65;18.13;;;;;;;2.34;64.81;94913.53;5011903;28;20026;-62
2021/01/08 02:32:24;;;;;;;22.38;16.38;;;;;;;2.55;65.35;94951.94;5009852;28;20045;-62
2021/01/08 02:34:50;;;;;;;26.15;18.08;;;;;;;2.31;65.23;94909.63;5010162;28;20026;-62
2021/01/08 02:37:16;;;;;;;28.85;18.05;;;;;;;2.38;65.02;94919.88;5010059;28;20050;-61
2021/01/08 02:39:42;;;;;;;25.95;17.35;;;;;;;2.31;64.99;94907.00;5009564;28;20037;-62
2021/01/08 02:42:08;;;;;;;27.15;17.67;;;;;;;2.15;64.79;94881.75;5011702;28;20030;-62
2021/01/08 02:44:34;;;;;;;25.65;17.60;;;;;;;2.43;64.53;94929.59;5009981;28;20476;-62
2021/01/08 02:46:59;;;;;;;27.83;17.88;;;;;;;2.31;64.81;94916.72;5009532;28;20072;-62
2021/01/08 02:49:25;;;;;;;25.90;17.08;;;;;;;2.51;64.88;94945.66;5009764;28;20089;-62
2021/01/08 02:51:50;;;;;;;26.00;17.20;;;;;;;2.45;64.63;94930.13;5009489;28;20034;-62
2021/01/08 02:54:16;;;;;;;24.42;17.80;;;;;;;2.13;64.75;94875.16;5009620;28;20711;-62
2021/01/08 02:56:50;;;;;;;26.75;17.95;;;;;;;2.38;64.79;94919.88;5011768;28;20426;-62
2021/01/08 02:59:16;;;;;;;26.90;18.10;;;;;;;1.52;64.42;94789.94;5009291;28;20052;-61
2021/01/08 03:01:42;;;;;;;23.40;17.85;;;;;;;2.33;64.89;94915.38;4991803;28;20046;-62
2021/01/08 03:04:07;;;;;;;22.08;16.52;;;;;;;2.37;64.83;94915.66;5009490;28;20096;-62
2021/01/08 03:06:33;;;;;;;24.58;17.65;;;;;;;2.33;64.75;94911.97;5009671;28;20045;-62
2021/01/08 03:08:59;;;;;;;23.83;17.20;;;;;;;2.48;64.84;94938.28;5011444;28;20044;-62
2021/01/08 03:11:25;;;;;;;29.23;17.85;;;;;;;2.51;64.59;94956.16;5009280;28;20042;-62
2021/01/08 03:13:52;;;;;;;29.95;19.17;;;;;;;2.23;64.67;94899.59;5009599;28;20049;-63
2021/01/08 03:16:17;;;;;;;26.10;17.58;;;;;;;2.34;64.95;94908.31;5009472;28;20391;-62
2021/01/08 03:18:42;;;;;;;27.75;18.05;;;;;;;2.04;64.39;94874.84;5009155;28;20042;-62
2021/01/08 03:21:08;;;;;;;26.33;17.85;;;;;;;2.34;64.27;94913.53;5011174;28;20062;-63
2021/01/08 03:23:33;;;;;;;25.90;17.77;;;;;;;2.36;64.58;94924.59;5009106;28;20045;-62
2021/01/08 03:25:58;;;;;;;27.13;18.52;;;;;;;2.43;64.44;94938.25;5009305;28;20121;-62
2021/01/08 03:28:24;;;;;;;27.17;18.50;;;;;;;2.13;64.72;94896.94;5008981;28;20050;-62
2021/01/08 03:30:49;;;;;;;24.02;18.17;;;;;;;2.21;64.78;94911.41;4991622;28;20100;-63
2021/01/08 03:33:14;;;;;;;26.20;17.92;;;;;;;2.40;64.41;94937.97;5008951;28;20068;-63
2021/01/08 03:35:40;;;;;;;27.38;18.05;;;;;;;2.25;64.98;94913.28;5011045;28;20618;-62
2021/01/08 03:38:05;;;;;;;25.73;18.63;;;;;;;2.27;65.00;94911.19;5009002;28;20058;-62
2021/01/08 03:40:33;;;;;;;25.52;17.88;;;;;;;2.45;65.08;94944.03;5008741;28;20404;-62
2021/01/08 03:42:58;;;;;;;23.83;17.63;;;;;;;2.44;64.89;94949.56;5008791;28;20045;-62
2021/01/08 03:45:23;;;;;;;29.95;19.20;;;;;;;2.21;64.67;94898.28;5009063;28;20026;-62
2021/01/08 03:47:49;;;;;;;29.98;19.25;;;;;;;2.21;64.86;94895.66;4993307;28;20535;-62
2021/01/08 03:50:14;;;;;;;27.13;18.77;;;;;;;2.23;64.63;94888.31;5008750;28;20053;-62
2021/01/08 03:52:39;;;;;;;28.67;18.88;;;;;;;2.24;64.78;94888.06;4990937;28;20109;-62
2021/01/08 03:55:05;;;;;;;26.65;18.27;;;;;;;2.43;64.65;94925.13;5007921;28;20042;-62
2021/01/08 03:57:30;;;;;;;27.58;18.73;;;;;;;2.36;64.74;94908.84;4990472;28;20380;-62
2021/01/08 03:59:55;;;;;;;30.00;19.30;;;;;;;2.48;64.57;94927.00;5009788;28;20030;-62
2021/01/08 04:02:21;;;;;;;29.55;19.80;;;;;;;2.20;64.71;94888.81;5008464;28;20121;-61
2021/01/08 04:04:46;;;;;;;28.15;18.63;;;;;;;2.21;65.18;94891.22;5008860;28;20041;-62
2021/01/08 04:07:11;;;;;;;28.63;19.00;;;;;;;2.17;64.48;94873.59;5008753;28;20038;-62
2021/01/08 04:09:36;;;;;;;28.23;18.85;;;;;;;2.25;64.53;94891.47;5008394;28;20046;-62
2021/01/08 04:12:02;;;;;;;28.55;19.25;;;;;;;2.24;64.62;94893.31;5010409;28;20022;-62
2021/01/08 04:14:27;;;;;;;30.85;20.00;;;;;;;2.04;64.69;94886.13;5008483;28;20212;-62
2021/01/08 04:16:53;;;;;;;28.98;19.10;;;;;;;2.17;65.10;94911.13;4990982;28;20037;-62
2021/01/08 04:19:18;;;;;;;28.98;20.02;;;;;;;1.78;64.83;94897.56;4990686;28;20044;-62
2021/01/08 04:21:45;;;;;;;28.20;19.20;;;;;;;1.61;66.26;94902.19;5008661;28;20443;-62
2021/01/08 04:24:11;;;;;;;26.00;18.42;;;;;;;1.20;66.81;94894.84;5010145;28;20076;-62
2021/01/08 04:26:37;;;;;;;28.63;19.00;;;;;;;0.86;68.29;94902.16;5008544;28;20034;-62
2021/01/08 04:29:02;;;;;;;29.08;19.15;;;;;;;0.88;68.13;94865.25;5008309;28;20041;-61
2021/01/08 04:31:28;;;;;;;30.42;20.73;;;;;;;1.52;67.49;94941.19;5008432;28;20042;-63
2021/01/08 04:33:53;;;;;;;29.20;19.55;;;;;;;1.59;67.16;94933.09;5008547;28;20058;-63
2021/01/08 04:36:18;;;;;;;29.73;19.20;;;;;;;1.35;67.15;94881.06;5008543;28;20541;-62
2021/01/08 04:38:44;;;;;;;31.63;20.25;;;;;;;1.62;66.92;94920.28;5010085;28;20058;-63
2021/01/08 04:41:09;;;;;;;31.52;19.70;;;;;;;1.38;67.76;94938.19;5008549;28;20512;-62
2021/01/08 04:43:35;;;;;;;33.78;21.30;;;;;;;1.40;67.87;94902.06;4990880;28;20053;-62
2021/01/08 04:46:13;;;;;;;33.83;21.27;;;;;;;1.43;68.12;94932.97;5008535;28;20048;-61
2021/01/08 04:48:39;;;;;;;32.92;20.67;;;;;;;1.58;67.37;94937.56;5008204;28;20042;-62
2021/01/08 04:51:05;;;;;;;35.25;21.75;;;;;;;1.66;67.36;94936.31;5010391;28;20026;-63
2021/01/08 04:53:33;;;;;;;29.92;20.65;;;;;;;0.55;67.77;94813.91;5008302;28;20042;-63
2021/01/08 04:56:07;;;;;;;31.90;21.08;;;;;;;1.34;67.80;94904.91;5008235;28;20038;-63
2021/01/08 04:58:34;;;;;;;29.55;19.73;;;;;;;0.63;69.65;94894.63;5007872;28;20052;-63
2021/01/08 05:01:01;;;;;;;30.30;19.75;;;;;;;1.29;69.01;94934.47;5008325;28;20049;-63
2021/01/08 05:03:28;;;;;;;34.17;21.05;;;;;;;0.92;69.42;94934.41;5007975;28;20118;-63
2021/01/08 05:05:53;;;;;;;32.22;20.88;;;;;;;1.03;69.22;94912.53;5010147;28;20038;-61
2021/01/08 05:08:18;;;;;;;32.05;20.92;;;;;;;1.12;69.41;94941.66;5008008;28;20446;-62
2021/01/08 05:10:44;;;;;;;33.28;21.40;;;;;;;0.87;69.07;94895.88;5010142;28;20103;-62
2021/01/08 05:13:10;;;;;;;30.90;20.83;;;;;;;1.08;68.65;94901.31;5011565;28;20045;-62
2021/01/08 05:15:35;;;;;;;34.08;22.40;;;;;;;1.41;68.06;94921.19;5011679;28;20042;-62
2021/01/08 05:18:01;;;;;;;31.90;20.75;;;;;;;1.19;68.36;94902.97;5013577;28;20109;-63
2021/01/08 05:20:26;;;;;;;37.30;22.02;;;;;;;1.33;67.83;94914.56;5011263;28;20057;-62
2021/01/08 05:22:51;;;;;;;31.98;20.83;;;;;;;0.99;69.00;94906.19;4993624;28;20034;-63
2021/01/08 05:25:17;;;;;;;33.35;21.67;;;;;;;1.15;68.29;94884.31;5011491;28;20034;-62
2021/01/08 05:27:42;;;;;;;32.65;20.63;;;;;;;1.39;68.30;94931.94;4993997;28;20118;-63
2021/01/08 05:30:21;;;;;;;31.90;20.25;;;;;;;1.11;68.68;94916.50;5013333;28;20061;-62
2021/01/08 05:32:56;;;;;;;32.42;21.42;;;;;;;1.63;67.98;94931.56;5011516;28;20128;-62
2021/01/08 05:35:22;;;;;;;32.92;21.05;;;;;;;1.38;67.37;94880.53;5011368;28;20084;-62
2021/01/08 05:37:47;;;;;;;36.50;21.55;;;;;;;1.47;67.92;94939.31;5011441;28;20037;-62
2021/01/08 05:40:13;;;;;;;32.70;21.33;;;;;;;0.96;69.19;94928.41;4993439;28;20057;-62
2021/01/08 05:42:49;;;;;;;30.75;19.63;;;;;;;0.98;70.04;94944.69;4993098;28;20130;-61
2021/01/08 05:45:15;;;;;;;34.28;20.60;;;;;;;0.68;70.32;94899.91;5011084;28;20420;-62
2021/01/08 05:47:41;;;;;;;28.23;20.33;;;;;;;0.94;69.60;94922.66;5012945;28;20033;-62
2021/01/08 05:50:07;;;;;;;33.67;21.30;;;;;;;1.13;69.35;94910.00;5010807;28;20108;-62
2021/01/08 05:52:33;;;;;;;33.45;20.65;;;;;;;1.15;69.05;94946.41;5010722;28;20042;-61
2021/01/08 05:54:58;;;;;;;34.15;22.17;;;;;;;1.21;69.75;94950.63;5010768;28;20129;-61
2021/01/08 05:57:25;;;;;;;34.35;21.33;;;;;;;1.02;69.38;94909.13;5010656;28;20041;-62
2021/01/08 05:59:51;;;;;;;33.90;20.60;;;;;;;1.30;68.29;94921.13;4994783;28;20026;-62
2021/01/08 06:02:17;;;;;;;30.35;19.95;;;;;;;1.13;69.28;94954.53;5010443;28;20100;-62
2021/01/08 06:04:42;;;;;;;36.28;22.25;;;;;;;1.21;69.14;94933.09;5010798;28;20030;-61
2021/01/08 06:07:15;;;;;;;32.58;20.52;;;;;;;0.95;69.14;94921.59;4993034;28;20088;-61
2021/01/08 06:09:43;;;;;;;34.53;20.02;;;;;;;0.64;70.45;94943.31;5010222;28;20149;-63
2021/01/08 06:12:11;;;;;;;30.15;19.45;;;;;;;0.73;70.11;94933.97;4994505;28;20026;-63
2021/01/08 06:14:37;;;;;;;25.90;18.55;;;;;;;0.75;70.03;94910.94;5010490;28;20030;-63
2021/01/08 06:17:03;;;;;;;30.38;19.23;;;;;;;1.24;69.22;94926.56;5010451;28;20429;-62
2021/01/08 06:19:29;;;;;;;29.27;18.55;;;;;;;1.30;68.16;94912.47;5009675;28;20133;-62
2021/01/08 06:21:57;;;;;;;29.40;20.13;;;;;;;1.28;68.40;94967.75;5009220;28;20046;-62
2021/01/08 06:24:26;;;;;;;28.98;18.92;;;;;;;0.86;69.66;94924.91;5010295;28;20316;-63
2021/01/08 06:26:52;;;;;;;28.17;17.83;;;;;;;0.93;69.38;94922.91;5012133;28;20432;-62
2021/01/08 06:29:19;;;;;;;26.73;17.90;;;;;;;0.45;69.75;94875.59;4992246;28;20141;-62
2021/01/08 06:31:52;;;;;;;26.55;17.42;;;;;;;1.09;69.93;94963.91;5009843;28;20403;-61
2021/01/08 06:34:29;;;;;;;24.88;16.17;;;;;;;1.09;70.29;94963.13;4992370;28;20050;-62
2021/01/08 06:37:06;;;;;;;24.30;17.00;;;;;;;1.14;70.22;94955.31;4992342;28;20042;-62
2021/01/08 06:39:40;;;;;;;24.63;16.48;;;;;;;1.09;70.19;94948.19;5009714;28;20105;-62
2021/01/08 06:42:07;;;;;;;26.02;16.85;;;;;;;0.97;70.09;94947.53;5011752;28;20022;-62
2021/01/08 06:44:33;;;;;;;25.17;16.73;;;;;;;1.00;70.27;94960.16;5009978;28;20033;-61
2021/01/08 06:47:00;;;;;;;20.38;15.48;;;;;;;0.63;71.61;94928.63;5009826;28;20048;-61
2021/01/08 06:49:30;;;;;;;21.08;14.77;;;;;;;0.70;71.01;94924.00;5009487;28;20030;-61
2021/01/08 06:51:58;;;;;;;19.90;14.57;;;;;;;0.34;71.81;94902.69;5009384;28;20046;-62
2021/01/08 06:54:26;;;;;;;25.00;15.25;;;;;;;0.89;71.80;94980.22;5009678;28;20030;-61
2021/01/08 06:56:56;;;;;;;22.23;15.18;;;;;;;1.27;70.96;94975.84;5011689;28;20029;-61
2021/01/08 06:59:22;;;;;;;22.10;15.27;;;;;;;1.32;70.41;94978.50;5009462;28;20034;-61
2021/01/08 07:02:07;;;;;;;18.52;13.23;;;;;;;1.13;70.68;94964.22;5009107;28;20041;-62
2021/01/08 07:04:37;;;;;;;17.85;12.65;;;;;;;0.77;71.49;94948.16;5009675;28;20033;-62
2021/01/08 07:07:04;;;;;;;18.67;13.85;;;;;;;1.15;71.25;94985.69;5009610;28;20072;-62
2021/01/08 07:09:34;;;;;;;15.85;12.40;;;;;;;1.04;70.84;94943.69;5009368;28;20030;-63
2021/01/08 07:12:00;;;;;;;15.40;10.95;;;;;;;0.76;70.32;94925.63;5011086;28;20100;-62
2021/01/08 07:14:26;;;;;;;14.75;11.18;;;;;;;0.95;71.39;94975.81;5009580;28;20064;-61
2021/01/08 07:16:53;;;;;;;13.07;11.00;;;;;;;1.10;70.63;94994.28;5009434;28;20543;-62
2021/01/08 07:19:20;;;;;;;13.20;10.85;;;;;;;0.65;71.94;94958.75;5009018;28;20487;-64
2021/01/08 07:21:51;;;;;;;14.02;11.52;;;;;;;1.15;70.77;94968.16;5009015;28;20053;-63
2021/01/08 07:24:19;;;;;;;13.95;10.93;;;;;;;0.89;71.14;94968.94;5009210;28;20029;-62
2021/01/08 07:26:46;;;;;;;15.82;11.55;;;;;;;0.97;71.63;95005.16;5011172;28;20022;-62
2021/01/08 07:29:12;;;;;;;15.95;12.38;;;;;;;1.21;70.42;94995.97;5008742;28;20045;-62
2021/01/08 07:31:39;;;;;;;14.75;11.90;;;;;;;1.38;69.87;95011.56;5008870;28;20385;-62
2021/01/08 07:34:08;;;;;;;17.15;12.38;;;;;;;1.41;69.52;94984.09;5008925;28;20041;-61
2021/01/08 07:36:34;;;;;;;17.05;12.75;;;;;;;1.26;69.49;94961.16;5009005;28;20496;-62
2021/01/08 07:39:00;;;;;;;12.70;11.25;;;;;;;1.26;69.17;94937.59;5010757;28;20442;-61
2021/01/08 07:41:37;;;;;;;14.77;12.35;;;;;;;1.86;68.62;95017.72;5008831;28;20088;-61
2021/01/08 07:44:24;;;;;;;14.77;12.27;;;;;;;1.60;67.80;94960.91;5008971;28;20545;-63
2021/01/08 07:46:49;;;;;;;16.48;13.07;;;;;;;1.35;67.84;94958.88;5008657;28;20431;-62
2021/01/08 07:49:28;;;;;;;17.75;12.13;;;;;;;1.28;69.07;95019.38;5008791;28;20103;-62
2021/01/08 07:51:53;;;;;;;15.05;12.57;;;;;;;1.34;69.25;95018.38;5008493;28;20042;-63
2021/01/08 07:54:55;;;;;;;18.73;14.30;;;;;;;1.21;69.47;95003.03;4991066;28;20725;-63
2021/01/08 07:57:20;;;;;;;17.45;13.77;;;;;;;1.51;69.06;95029.50;5008628;28;20141;-62
2021/01/08 07:59:46;;;;;;;18.35;13.27;;;;;;;1.32;68.74;95015.19;5010334;28;20109;-62
2021/01/08 08:02:11;;;;;;;21.77;14.85;;;;;;;1.45;68.33;95004.31;5008393;28;20038;-62
2021/01/08 08:04:37;;;;;;;18.75;15.00;;;;;;;1.17;68.88;95001.94;5008435;28;20056;-61
2021/01/08 08:07:03;;;;;;;21.80;15.13;;;;;;;1.47;68.80;95033.66;5008609;28;20503;-63
2021/01/08 08:09:29;;;;;;;23.05;16.27;;;;;;;1.37;69.53;95027.56;4990854;28;20042;-62
2021/01/08 08:11:54;;;;;;;20.13;15.15;;;;;;;1.17;69.12;95005.34;5010096;28;20780;-62
2021/01/08 08:14:21;;;;;;;19.60;14.68;;;;;;;1.16;68.59;94995.13;5008531;28;20041;-62
2021/01/08 08:16:48;;;;;;;19.90;15.00;;;;;;;1.67;68.72;95046.16;5008606;28;20357;-63
2021/01/08 08:19:14;;;;;;;20.95;14.73;;;;;;;1.67;67.77;95046.16;5008653;28;20049;-63
2021/01/08 08:21:50;;;;;;;17.17;14.60;;;;;;;2.03;68.06;95047.22;4991899;28;20045;-63
2021/01/08 08:24:17;;;;;;;22.25;14.68;;;;;;;2.24;66.56;95021.91;5009762;28;20053;-62
2021/01/08 08:26:44;;;;;;;31.17;15.85;;;;;;;2.27;65.16;95015.38;5011571;28;20069;-62
2021/01/08 08:29:13;;;;;;;16.23;13.45;;;;;;;2.58;65.08;95053.06;5009012;28;20064;-66
2021/01/08 08:31:45;;;;;;;21.33;14.95;;;;;;;2.86;64.44;95055.25;5009274;28;20514;-64
2021/01/08 08:34:11;;;;;;;17.13;14.27;;;;;;;2.69;63.72;95048.66;5009759;28;20037;-67
2021/01/08 08:36:37;;;;;;;17.63;14.10;;;;;;;2.78;63.51;95026.88;5009698;28;20526;-62
2021/01/08 08:39:10;;;;;;;17.70;13.35;;;;;;;2.68;65.08;95049.69;5011314;28;20492;-61
2021/01/08 08:41:37;;;;;;;16.33;13.60;;;;;;;2.95;64.17;95055.56;5009366;28;20042;-64
2021/01/08 08:44:07;;;;;;;16.33;13.07;;;;;;;2.90;63.05;95007.47;4992015;28;20042;-61
2021/01/08 08:46:38;;;;;;;17.17;13.20;;;;;;;3.28;62.95;95053.59;5012973;28;20048;-63
2021/01/08 08:49:06;;;;;;;18.63;13.80;;;;;;;2.89;62.43;95027.72;5013169;28;20045;-60
2021/01/08 08:51:31;;;;;;;16.70;12.77;;;;;;;2.93;62.65;95041.91;5013218;28;20033;-61
2021/01/08 08:53:57;;;;;;;17.35;13.32;;;;;;;2.49;63.59;95046.72;5015129;28;20026;-64
2021/01/08 08:56:23;;;;;;;17.35;13.90;;;;;;;2.30;64.56;95026.16;5013277;28;20034;-62
2021/01/08 08:58:48;;;;;;;16.08;12.98;;;;;;;3.06;64.02;95054.56;5012034;28;20034;-61
2021/01/08 09:01:13;;;;;;;16.15;13.77;;;;;;;2.60;64.18;95030.75;5012926;28;20038;-65
2021/01/08 09:03:39;;;;;;;15.52;12.60;;;;;;;3.13;62.44;95057.75;5012846;28;20431;-62
2021/01/08 09:06:09;;;;;;;13.25;11.85;;;;;;;3.35;62.37;95036.50;5014871;28;20033;-63
2021/01/08 09:08:38;;;;;;;15.95;12.52;;;;;;;3.69;61.33;95046.53;5012743;28;20038;-63
2021/01/08 09:11:15;;;;;;;13.73;11.98;;;;;;;3.74;61.29;95037.88;5012733;28;20103;-64
2021/01/08 09:13:52;;;;;;;15.88;12.48;;;;;;;3.78;60.58;95044.16;5012778;28;20041;-62
2021/01/08 09:16:23;;;;;;;14.40;12.80;;;;;;;3.86;60.28;95041.00;5012718;28;20034;-65
2021/01/08 09:19:06;;;;;;;13.23;10.73;;;;;;;3.59;60.40;95042.06;4994728;28;20054;-65
2021/01/08 09:21:32;;;;;;;;;;;;;;;3.11;61.81;95048.53;5012784;28;20045;-59
2021/01/08 09:24:03;;;;;;;13.45;11.80;;;;;;;2.48;63.17;95045.13;5014200;28;20366;-62
2021/01/08 09:26:30;;;;;;;12.70;11.02;;;;;;;2.69;63.56;95056.53;5012502;28;20125;-65
2021/01/08 09:28:56;;;;;;;12.68;11.38;;;;;;;2.18;64.76;95058.88;5011499;28;20038;-65
2021/01/08 09:31:41;;;;;;;13.15;11.75;;;;;;;2.63;64.00;95065.44;5012301;28;20052;-65
2021/01/08 09:34:07;;;;;;;14.77;12.25;;;;;;;2.60;63.17;95043.88;5012204;28;20108;-66
2021/01/08 09:36:35;;;;;;;12.88;11.48;;;;;;;2.48;63.60;95064.28;5012430;28;23869;-63
2021/01/08 09:39:04;;;;;;;15.30;12.73;;;;;;;3.20;62.35;95025.94;5013839;28;20391;-67
2021/01/08 09:41:33;;;;;;;12.88;11.10;;;;;;;3.01;60.90;95032.72;4994374;28;20091;-65
2021/01/08 09:44:00;;;;;;;11.95;10.52;;;;;;;3.80;61.24;95029.69;4994672;28;20037;-65
2021/01/08 09:46:26;;;;;;;13.82;12.20;;;;;;;3.73;59.87;94944.97;5012149;28;20041;-64
2021/01/08 09:48:52;;;;;;;13.13;11.63;;;;;;;4.61;58.64;95051.69;5011623;28;20038;-65
2021/01/08 09:51:17;;;;;;;13.13;11.82;;;;;;;4.24;58.25;95050.19;5011844;28;20026;-67
2021/01/08 09:53:52;;;;;;;13.43;11.80;;;;;;;4.54;57.83;95038.78;5013753;28;20034;-65
2021/01/08 09:56:18;;;;;;;12.43;10.95;;;;;;;4.00;58.22;94978.91;5010699;28;20042;-66
2021/01/08 09:58:43;;;;;;;12.27;11.02;;;;;;;4.42;58.23;95039.09;5010952;28;20439;-65
2021/01/08 10:01:12;;;;;;;13.20;11.13;;;;;;;4.72;57.35;95044.56;5011556;28;20045;-65
2021/01/08 10:03:39;;;;;;;11.32;10.07;;;;;;;4.86;56.68;95038.44;5011685;28;20080;-65
2021/01/08 10:06:14;;;;;;;13.13;11.80;;;;;;;4.81;56.84;95037.66;5013641;28;20030;-65
2021/01/08 10:08:41;;;;;;;12.52;11.20;;;;;;;4.24;57.21;95044.13;5011885;28;20395;-65
2021/01/08 10:11:07;;;;;;;11.85;10.65;;;;;;;3.98;58.76;95051.25;5011391;28;20046;-65
2021/01/08 10:13:34;;;;;;;13.95;11.30;;;;;;;4.33;57.70;95048.59;5011396;28;20112;-65
2021/01/08 10:16:09;;;;;;;12.32;11.00;;;;;;;4.49;57.49;95070.41;5011474;28;20499;-65
2021/01/08 10:18:36;;;;;;;12.45;11.10;;;;;;;3.85;58.85;95057.84;4993781;28;20049;-68
2021/01/08 10:21:09;;;;;;;12.25;11.00;;;;;;;3.65;58.97;95056.78;5013340;28;20038;-67
2021/01/08 10:23:39;;;;;;;11.68;10.40;;;;;;;4.38;57.88;95056.47;5011219;28;20084;-68
2021/01/08 10:26:15;;;;;;;11.88;10.25;;;;;;;4.63;57.20;95050.34;5011327;28;20041;-65
2021/01/08 10:28:54;;;;;;;12.40;11.18;;;;;;;4.14;56.92;95003.59;4992932;28;20042;-66
2021/01/08 10:31:21;;;;;;;11.85;10.55;;;;;;;3.70;58.55;95052.59;5011061;28;20081;-68
2021/01/08 10:33:46;;;;;;;11.63;10.38;;;;;;;2.94;60.26;95054.00;5011093;28;20045;-67
2021/01/08 10:36:12;;;;;;;11.40;10.30;;;;;;;3.11;59.72;95044.06;5013011;28;20026;-68
2021/01/08 10:38:38;;;;;;;11.65;10.18;;;;;;;3.54;58.70;95051.78;5010598;28;20046;-66
2021/01/08 10:41:04;;;;;;;12.35;11.07;;;;;;;2.66;61.37;95030.75;5010899;28;20042;-66
2021/01/08 10:43:32;;;;;;;11.95;10.68;;;;;;;3.16;60.52;95038.03;4992977;28;20042;-67
2021/01/08 10:45:58;;;;;;;12.18;10.90;;;;;;;3.38;60.62;95050.97;5010941;28;20041;-64
2021/01/08 10:48:24;;;;;;;12.45;10.60;;;;;;;2.68;60.53;95033.94;5010648;28;20075;-66
2021/01/08 10:50:49;;;;;;;11.73;10.52;;;;;;;2.93;60.25;95041.13;5012863;28;20476;-68
2021/01/08 10:53:14;;;;;;;11.95;10.63;;;;;;;3.07;60.35;95037.75;5010463;28;20038;-66
2021/01/08 10:55:40;;;;;;;12.80;10.48;;;;;;;3.86;58.90;95038.38;5010483;28;20038;-65
2021/01/08 10:58:05;;;;;;;12.18;10.90;;;;;;;3.35;59.73;95033.06;5010268;28;20073;-66
2021/01/08 11:00:30;;;;;;;11.85;10.63;;;;;;;3.15;60.39;95020.69;5010526;28;20030;-65
2021/01/08 11:02:55;;;;;;;11.15;9.98;;;;;;;3.33;58.92;95029.94;5012303;28;20029;-66
2021/01/08 11:05:21;;;;;;;13.23;10.57;;;;;;;3.41;59.54;95032.03;5010731;28;20034;-65
2021/01/08 11:07:47;;;;;;;11.35;10.00;;;;;;;2.79;59.72;95027.69;4992404;28;20038;-66
2021/01/08 11:10:13;;;;;;;11.27;10.18;;;;;;;2.98;60.10;95031.41;5010263;28;20042;-67
2021/01/08 11:12:38;;;;;;;10.95;9.48;;;;;;;3.04;59.84;95022.50;5026031;22;20413;-67
2021/01/08 11:15:05;;;;;;;11.70;10.13;;;;;;;2.75;60.91;95026.59;5030294;28;20455;-66
2021/01/08 11:17:31;;;;;;;11.18;9.85;;;;;;;2.60;60.73;95011.56;5012225;28;20057;-68
2021/01/08 11:19:56;;;;;;;12.38;10.13;;;;;;;2.84;60.95;95017.97;5029652;28;20080;-68
2021/01/08 11:22:24;;;;;;;10.77;9.60;;;;;;;3.33;58.38;95022.84;5029707;28;20037;-68
2021/01/08 11:24:50;;;;;;;11.30;10.18;;;;;;;3.41;58.36;95026.78;5029710;28;20041;-67
2021/01/08 11:27:15;;;;;;;11.18;9.88;;;;;;;3.00;59.16;95016.19;5029938;28;20479;-67